Terminal Aerodrome Forecast
Issued by NWS

Home | Current Version | Previous Version | Text Only | Print | Product List | Glossary On
Versions: 1 2 3 4 5 6 7 8 9 10 11 12 13 14 15 16 17 18 19 20 21 22 23 24
000
FTUS41 KRLX 211300 AAA
TAFCKB
TAF AMD
KCKB 211357Z 2114/2212 24010G20KT P6SM SCT050
     FM211600 24016G26KT P6SM SCT050
     FM212300 24010G17KT P6SM BKN050
     FM220200 24007KT P6SM BKN045
     FM220600 23006KT P6SM -SHRA BKN040=

USA.gov is the U.S. government's official web portal to all federal, state and local government web resources and services.